createdAt,value
2019-05-29T00:01:31.873Z,78.52
2019-05-29T00:04:45.568Z,78.09
2019-05-29T00:07:59.090Z,78.78
2019-05-29T00:11:12.700Z,78.56
2019-05-29T00:14:27.581Z,78.49
2019-05-29T00:17:41.455Z,78.80
2019-05-29T00:20:54.970Z,78.90
2019-05-29T00:24:08.842Z,79.11
2019-05-29T00:27:22.369Z,79.17
2019-05-29T00:30:35.987Z,79.14
2019-05-29T00:33:49.815Z,78.99
2019-05-29T00:37:03.414Z,78.91
2019-05-29T00:40:17.237Z,78.88
2019-05-29T00:43:30.742Z,79.05
2019-05-29T00:46:44.245Z,79.03
2019-05-29T00:49:58.191Z,78.92
2019-05-29T00:53:12.200Z,79.57
2019-05-29T00:56:25.697Z,79.25
2019-05-29T00:59:39.319Z,79.71
2019-05-29T01:02:52.854Z,80.31
2019-05-29T01:06:06.357Z,79.45
2019-05-29T01:09:20.760Z,79.98
2019-05-29T01:12:34.701Z,80.05
2019-05-29T01:15:48.207Z,79.47
2019-05-29T01:19:20.348Z,79.53
2019-05-29T01:22:33.891Z,79.27
2019-05-29T01:25:47.497Z,79.73
2019-05-29T01:29:01.015Z,79.36
2019-05-29T01:32:15.501Z,79.70
2019-05-29T01:35:29.228Z,79.94
2019-05-29T01:38:43.262Z,79.77
2019-05-29T01:41:57.061Z,79.68
2019-05-29T01:45:11.085Z,79.96
2019-05-29T01:48:24.718Z,80.05
2019-05-29T01:51:38.423Z,79.96
2019-05-29T01:54:52.021Z,79.74
2019-05-29T01:58:05.631Z,79.07
2019-05-29T02:01:19.895Z,79.89
2019-05-29T02:04:33.838Z,80.12
2019-05-29T02:07:47.319Z,80.69
2019-05-29T02:11:00.818Z,80.74
2019-05-29T02:14:14.342Z,81.17
2019-05-29T02:17:28.052Z,80.45
2019-05-29T02:20:41.770Z,80.09
2019-05-29T02:23:55.271Z,80.07
2019-05-29T02:27:08.734Z,80.40
2019-05-29T02:30:26.057Z,80.62
2019-05-29T02:33:38.830Z,80.61
2019-05-29T02:36:52.310Z,80.28
2019-05-29T02:40:07.440Z,80.17
2019-05-29T02:43:21.409Z,80.05
2019-05-29T02:46:36.506Z,80.14
2019-05-29T02:49:50.029Z,80.13
2019-05-29T02:53:04.749Z,80.15
2019-05-29T02:56:18.247Z,79.86
2019-05-29T02:59:32.248Z,79.80
2019-05-29T03:02:45.914Z,80.36
2019-05-29T03:05:59.414Z,80.52
2019-05-29T03:09:13.037Z,80.78
2019-05-29T03:12:27.091Z,81.35
2019-05-29T03:15:40.983Z,80.92
2019-05-29T03:18:54.499Z,81.41
2019-05-29T03:22:07.971Z,80.62
2019-05-29T03:25:21.574Z,81.01
2019-05-29T03:28:35.425Z,80.90
2019-05-29T03:31:49.108Z,80.40
2019-05-29T03:35:03.218Z,80.59
2019-05-29T03:38:16.937Z,80.35
2019-05-29T03:41:30.458Z,80.01
2019-05-29T03:44:44.239Z,79.75
2019-05-29T03:47:57.905Z,80.21
2019-05-29T03:51:11.550Z,79.48
2019-05-29T03:54:26.683Z,79.54
2019-05-29T03:57:40.529Z,79.81
2019-05-29T04:00:54.037Z,79.26
2019-05-29T04:04:07.550Z,79.17
2019-05-29T04:07:21.025Z,79.12
2019-05-29T04:10:37.021Z,79.92
2019-05-29T04:13:50.019Z,79.12
2019-05-29T04:17:05.354Z,78.73
2019-05-29T04:20:19.004Z,78.61
2019-05-29T04:23:34.040Z,78.21
2019-05-29T04:26:49.997Z,78.48
2019-05-29T04:30:05.299Z,79.36
2019-05-29T04:33:18.804Z,79.44
2019-05-29T04:36:33.032Z,78.69
2019-05-29T04:39:47.945Z,78.33
2019-05-29T04:43:01.419Z,78.74
2019-05-29T04:46:15.038Z,78.49
2019-05-29T04:49:29.464Z,78.47
2019-05-29T04:52:44.982Z,77.67
2019-05-29T04:56:01.957Z,77.81
2019-05-29T04:59:15.470Z,77.68
2019-05-29T05:02:28.993Z,77.70
2019-05-29T05:05:42.503Z,76.38
2019-05-29T05:08:56.171Z,75.04
2019-05-29T05:12:10.221Z,75.24
2019-05-29T05:16:39.984Z,75.21
2019-05-29T05:19:53.486Z,74.77
2019-05-29T05:23:07.007Z,73.62
2019-05-29T05:26:20.606Z,74.25
2019-05-29T05:29:34.195Z,73.75
2019-05-29T05:32:47.952Z,74.01
2019-05-29T05:36:01.981Z,73.80
2019-05-29T05:39:15.896Z,73.52
2019-05-29T05:42:31.004Z,72.38
2019-05-29T05:45:44.617Z,72.45
2019-05-29T05:48:58.573Z,72.50
2019-05-29T05:52:12.341Z,71.65
2019-05-29T05:55:26.018Z,71.18
2019-05-29T05:58:39.985Z,70.71
2019-05-29T06:01:53.592Z,70.52
2019-05-29T06:05:07.328Z,70.80
2019-05-29T06:08:20.812Z,70.76
2019-05-29T06:11:34.545Z,70.13
2019-05-29T06:14:48.022Z,70.30
2019-05-29T06:18:19.959Z,70.51
2019-05-29T06:21:16.958Z,70.13
2019-05-29T06:24:30.442Z,70.32
2019-05-29T06:27:44.307Z,70.41
2019-05-29T06:30:57.937Z,70.40
2019-05-29T06:34:11.544Z,69.65
2019-05-29T06:37:25.055Z,69.97
2019-05-29T06:40:40.228Z,68.55
2019-05-29T06:43:53.863Z,67.95
2019-05-29T06:47:07.433Z,68.65
2019-05-29T06:50:21.050Z,68.69
2019-05-29T06:53:35.710Z,67.03
2019-05-29T06:56:49.334Z,66.45
2019-05-29T07:00:04.189Z,67.14
2019-05-29T07:03:17.991Z,66.68
2019-05-29T07:06:31.657Z,65.27
2019-05-29T07:09:45.289Z,63.97
2019-05-29T07:12:58.997Z,64.48
2019-05-29T07:16:12.622Z,63.09
2019-05-29T07:19:45.129Z,63.70
2019-05-29T07:22:42.997Z,61.60
2019-05-29T07:25:56.718Z,61.84
2019-05-29T07:29:10.230Z,60.28
2019-05-29T07:32:23.741Z,58.71
2019-05-29T07:35:37.533Z,57.55
2019-05-29T07:39:02.624Z,55.90
2019-05-29T07:42:06.434Z,56.41
2019-05-29T07:45:20.115Z,57.11
2019-05-29T07:48:33.601Z,59.15
2019-05-29T07:51:47.529Z,59.12
2019-05-29T07:55:02.238Z,58.59
2019-05-29T07:58:15.840Z,57.58
2019-05-29T08:01:30.552Z,56.41
2019-05-29T08:04:45.184Z,57.88
2019-05-29T08:07:58.854Z,56.81
2019-05-29T08:11:12.433Z,57.26
2019-05-29T08:14:26.213Z,58.25
2019-05-29T08:17:40.056Z,59.14
2019-05-29T08:20:53.607Z,58.73
2019-05-29T08:24:07.134Z,58.23
2019-05-29T08:27:21.018Z,57.54
2019-05-29T08:30:34.538Z,58.06
2019-05-29T08:33:48.971Z,57.70
2019-05-29T08:37:07.154Z,55.91
2019-05-29T08:40:18.962Z,54.84
2019-05-29T08:43:32.781Z,56.40
2019-05-29T08:47:08.214Z,56.16
2019-05-29T08:50:17.245Z,54.97
2019-05-29T08:53:17.466Z,53.73
2019-05-29T08:56:31.971Z,53.55
2019-05-29T08:59:46.382Z,54.83
2019-05-29T09:03:00.525Z,52.08
2019-05-29T09:06:14.578Z,50.62
2019-05-29T09:09:28.239Z,51.18
2019-05-29T09:12:45.913Z,51.05
2019-05-29T09:15:58.108Z,49.89
2019-05-29T09:19:12.132Z,49.80
2019-05-29T09:22:25.733Z,48.94
2019-05-29T09:25:39.252Z,51.42
2019-05-29T09:28:53.210Z,50.29
2019-05-29T09:32:07.013Z,51.01
2019-05-29T09:35:21.966Z,45.73
2019-05-29T09:38:36.115Z,47.07
2019-05-29T09:41:50.116Z,46.96
2019-05-29T09:45:04.920Z,43.79
2019-05-29T09:48:23.321Z,43.84
2019-05-29T09:51:35.754Z,46.36
2019-05-29T09:54:49.984Z,46.54
2019-05-29T09:58:04.513Z,46.86
2019-05-29T10:01:23.944Z,46.54
2019-05-29T10:04:33.794Z,45.53
2019-05-29T10:07:47.920Z,45.83
2019-05-29T10:11:08.691Z,47.54
2019-05-29T10:14:17.115Z,47.63
2019-05-29T10:17:30.833Z,46.51
2019-05-29T10:20:44.606Z,47.06
2019-05-29T10:23:59.590Z,47.29
2019-05-29T10:27:13.269Z,45.78
2019-05-29T10:30:27.438Z,44.44
2019-05-29T10:33:42.383Z,42.56
2019-05-29T10:36:55.940Z,44.29
2019-05-29T10:40:09.954Z,43.00
2019-05-29T10:43:33.611Z,43.54
2019-05-29T10:46:38.973Z,44.08
2019-05-29T10:49:53.779Z,45.14
2019-05-29T10:53:07.661Z,42.08
2019-05-29T10:56:21.782Z,43.24
2019-05-29T10:59:35.601Z,42.47
2019-05-29T11:02:50.171Z,45.27
2019-05-29T11:06:04.962Z,46.60
2019-05-29T11:09:18.903Z,43.20
2019-05-29T11:12:32.697Z,41.54
2019-05-29T11:15:46.517Z,40.04
2019-05-29T11:19:00.027Z,41.39
2019-05-29T11:22:25.620Z,41.83
2019-05-29T11:25:30.348Z,42.81
2019-05-29T11:28:48.365Z,41.19
2019-05-29T11:32:05.339Z,38.53
2019-05-29T11:35:19.723Z,37.85
2019-05-29T11:38:35.980Z,39.39
2019-05-29T11:41:50.562Z,39.74
2019-05-29T11:45:06.356Z,42.76
2019-05-29T11:48:20.445Z,42.68
2019-05-29T11:51:34.510Z,40.11
2019-05-29T11:54:48.771Z,38.38
2019-05-29T11:58:03.291Z,40.84
2019-05-29T12:01:20.763Z,41.56
2019-05-29T12:04:37.141Z,40.31
2019-05-29T12:07:53.323Z,39.38
2019-05-29T12:11:07.873Z,40.10
2019-05-29T12:16:40.649Z,39.21
2019-05-29T12:19:56.061Z,40.40
2019-05-29T12:23:25.074Z,40.67
2019-05-29T12:26:26.827Z,37.93
2019-05-29T12:29:43.295Z,37.30
2019-05-29T12:36:31.237Z,35.93
2019-05-29T12:39:45.629Z,37.22
2019-05-29T12:43:00.148Z,38.15
2019-05-29T12:46:14.215Z,38.78
2019-05-29T12:49:28.099Z,38.71
2019-05-29T12:52:42.363Z,40.22
2019-05-29T12:55:56.332Z,36.56
2019-05-29T12:59:09.835Z,34.99
2019-05-29T13:02:23.479Z,35.31
2019-05-29T13:05:37.137Z,36.38
2019-05-29T13:08:50.683Z,38.45
2019-05-29T13:12:04.856Z,38.63
2019-05-29T13:15:18.693Z,41.39
2019-05-29T13:18:33.119Z,40.98
2019-05-29T13:21:46.949Z,41.41
2019-05-29T13:25:01.286Z,41.06
2019-05-29T13:28:14.885Z,39.76
2019-05-29T13:31:28.800Z,41.45
2019-05-29T13:34:42.509Z,36.67
2019-05-29T13:37:56.922Z,35.80
2019-05-29T13:41:10.588Z,35.13
2019-05-29T13:44:24.104Z,33.78
2019-05-29T13:47:37.769Z,32.50
2019-05-29T13:50:51.506Z,34.13
2019-05-29T13:54:13.199Z,34.14
2019-05-29T13:57:20.702Z,34.48
2019-05-29T14:00:35.159Z,36.53
2019-05-29T14:03:50.657Z,39.20
2019-05-29T14:07:05.044Z,38.74
2019-05-29T14:10:19.127Z,40.15
2019-05-29T14:13:32.996Z,39.87
2019-05-29T14:16:46.753Z,39.70
2019-05-29T14:20:00.669Z,38.61
2019-05-29T14:23:14.314Z,37.88
2019-05-29T14:26:27.852Z,36.42
2019-05-29T14:29:41.384Z,36.40
2019-05-29T14:32:54.877Z,35.90
2019-05-29T14:36:09.305Z,36.41
2019-05-29T14:39:23.013Z,38.73
2019-05-29T14:42:36.709Z,38.93
2019-05-29T14:45:50.353Z,39.11
2019-05-29T14:49:04.376Z,38.83
2019-05-29T14:52:18.007Z,36.94
2019-05-29T14:55:31.689Z,38.64
2019-05-29T14:58:45.331Z,37.83
2019-05-29T15:01:58.875Z,36.23
2019-05-29T15:05:15.112Z,37.11
2019-05-29T15:08:28.737Z,36.79
2019-05-29T15:11:42.261Z,34.01
2019-05-29T15:14:56.128Z,33.51
2019-05-29T15:18:13.685Z,32.59
2019-05-29T15:21:25.149Z,31.64
2019-05-29T15:24:39.016Z,33.31
2019-05-29T15:27:52.540Z,32.54
2019-05-29T15:31:06.362Z,31.36
2019-05-29T15:34:20.265Z,32.43
2019-05-29T15:37:34.181Z,31.50
2019-05-29T15:40:47.722Z,32.33
2019-05-29T15:44:01.725Z,30.20
2019-05-29T15:47:15.419Z,30.13
2019-05-29T15:50:29.081Z,31.08
2019-05-29T15:53:42.846Z,29.45
2019-05-29T15:56:56.729Z,29.83
2019-05-29T16:00:11.407Z,31.08
2019-05-29T16:03:25.345Z,29.97
2019-05-29T16:06:38.826Z,29.84
2019-05-29T16:09:52.330Z,26.59
2019-05-29T16:13:05.953Z,28.13
2019-05-29T16:16:19.434Z,29.27
2019-05-29T16:19:32.950Z,32.94
2019-05-29T16:22:46.487Z,32.10
2019-05-29T16:26:00.760Z,34.80
2019-05-29T16:29:16.407Z,34.22
2019-05-29T16:32:30.088Z,31.76
2019-05-29T16:35:44.077Z,28.89
2019-05-29T16:38:57.655Z,28.50
2019-05-29T16:42:11.880Z,27.47
2019-05-29T16:45:25.713Z,27.14
2019-05-29T16:48:39.376Z,23.94
2019-05-29T16:51:53.018Z,23.39
2019-05-29T16:55:06.881Z,22.17
2019-05-29T16:58:21.294Z,21.89
2019-05-29T17:01:34.934Z,21.93
2019-05-29T17:04:48.656Z,19.85
2019-05-29T17:08:02.606Z,20.06
2019-05-29T17:11:16.375Z,20.00
2019-05-29T17:14:30.095Z,21.22
2019-05-29T17:17:43.849Z,19.73
2019-05-29T17:20:57.401Z,22.89
2019-05-29T17:24:11.087Z,29.50
2019-05-29T17:27:25.131Z,29.50
2019-05-29T17:30:39.080Z,31.44
2019-05-29T17:33:52.870Z,34.72
2019-05-29T17:37:06.688Z,36.49
2019-05-29T17:40:21.474Z,38.76
2019-05-29T17:43:35.582Z,40.55
2019-05-29T17:46:49.338Z,40.91
2019-05-29T17:50:04.664Z,42.81
2019-05-29T17:53:18.290Z,44.43
2019-05-29T17:56:36.720Z,47.31
2019-05-29T17:59:47.798Z,47.11
2019-05-29T18:03:01.544Z,47.17
2019-05-29T18:06:16.236Z,46.70
2019-05-29T18:09:30.495Z,45.84
2019-05-29T18:12:44.115Z,42.74
2019-05-29T18:15:58.177Z,41.87
2019-05-29T18:19:11.680Z,43.45
2019-05-29T18:22:25.716Z,46.27
2019-05-29T18:25:39.346Z,49.22
2019-05-29T18:28:53.246Z,48.40
2019-05-29T18:32:06.998Z,49.80
2019-05-29T18:35:20.833Z,52.96
2019-05-29T18:38:34.525Z,54.27
2019-05-29T18:41:48.132Z,52.18
2019-05-29T18:45:02.236Z,52.77
2019-05-29T18:48:15.911Z,54.33
2019-05-29T18:51:29.390Z,54.50
2019-05-29T18:54:42.930Z,55.10
2019-05-29T18:57:56.444Z,56.32
2019-05-29T19:01:10.042Z,57.68
2019-05-29T19:04:23.653Z,58.90
2019-05-29T19:07:37.245Z,61.47
2019-05-29T19:10:51.162Z,60.11
2019-05-29T19:14:04.959Z,61.05
2019-05-29T19:17:18.561Z,62.25
2019-05-29T19:20:32.603Z,62.99
2019-05-29T19:23:46.152Z,65.39
2019-05-29T19:27:00.047Z,65.05
2019-05-29T19:30:15.365Z,64.86
2019-05-29T19:33:29.382Z,65.14
2019-05-29T19:36:43.041Z,65.69
2019-05-29T19:39:56.560Z,65.03
2019-05-29T19:43:10.062Z,66.89
2019-05-29T19:46:24.471Z,67.59
2019-05-29T19:49:38.171Z,69.03
2019-05-29T19:52:52.282Z,70.73
2019-05-29T19:56:06.356Z,70.94
2019-05-29T19:59:20.202Z,70.95
2019-05-29T20:02:34.672Z,71.85
2019-05-29T20:05:48.302Z,71.71
2019-05-29T20:09:04.831Z,71.51
2019-05-29T20:12:18.400Z,71.50
2019-05-29T20:15:36.440Z,72.40
2019-05-29T20:18:50.063Z,73.37
2019-05-29T20:22:05.168Z,73.55
2019-05-29T20:25:21.557Z,74.01
2019-05-29T20:28:36.128Z,73.86
2019-05-29T20:31:49.912Z,73.53
2019-05-29T20:35:03.843Z,74.30
2019-05-29T20:38:17.330Z,74.73
2019-05-29T20:41:34.095Z,74.85
2019-05-29T20:44:46.620Z,76.60
2019-05-29T20:48:00.353Z,76.70
2019-05-29T20:51:14.181Z,76.44
2019-05-29T20:54:27.682Z,76.50
2019-05-29T20:57:42.171Z,76.50
2019-05-29T21:00:55.772Z,76.54
2019-05-29T21:04:09.258Z,77.01
2019-05-29T21:07:22.810Z,77.17
2019-05-29T21:10:37.213Z,77.93
2019-05-29T21:16:39.803Z,78.41
2019-05-29T21:19:53.478Z,79.49
2019-05-29T21:23:06.945Z,79.31
2019-05-29T21:26:20.685Z,78.75
2019-05-29T21:29:35.171Z,78.97
2019-05-29T21:32:48.806Z,78.96
2019-05-29T21:36:02.366Z,78.61
2019-05-29T21:39:15.875Z,78.69
2019-05-29T21:42:29.357Z,78.37
2019-05-29T21:45:43.176Z,78.42
2019-05-29T21:48:56.632Z,78.33
2019-05-29T21:52:10.128Z,79.28
2019-05-29T21:55:23.714Z,79.20
2019-05-29T21:58:37.553Z,79.19
2019-05-29T22:01:51.418Z,79.49
2019-05-29T22:05:06.403Z,79.46
2019-05-29T22:08:20.094Z,79.64
2019-05-29T22:11:33.694Z,79.60
2019-05-29T22:14:47.962Z,79.79
2019-05-29T22:18:01.584Z,80.11
2019-05-29T22:21:15.185Z,79.79
2019-05-29T22:24:28.670Z,80.43
2019-05-29T22:27:42.164Z,79.95
2019-05-29T22:30:55.763Z,79.71
2019-05-29T22:34:09.244Z,79.47
2019-05-29T22:37:22.860Z,79.42
2019-05-29T22:40:36.770Z,79.68
2019-05-29T22:43:51.378Z,79.59
2019-05-29T22:47:05.150Z,79.98
2019-05-29T22:50:18.741Z,79.67
2019-05-29T22:53:32.323Z,79.65
2019-05-29T22:56:45.816Z,79.15
2019-05-29T23:00:00.089Z,79.18
2019-05-29T23:03:14.038Z,79.43
2019-05-29T23:06:27.547Z,79.57
2019-05-29T23:09:41.024Z,80.18
2019-05-29T23:12:56.181Z,79.71
2019-05-29T23:16:10.077Z,79.87
2019-05-29T23:19:23.582Z,79.52
2019-05-29T23:22:37.179Z,80.36
2019-05-29T23:25:50.650Z,79.99
2019-05-29T23:29:04.274Z,79.91
2019-05-29T23:32:20.232Z,80.02
2019-05-29T23:35:33.724Z,79.92
2019-05-29T23:38:47.214Z,80.04
2019-05-29T23:42:01.577Z,80.07
2019-05-29T23:45:15.286Z,79.67
2019-05-29T23:48:28.765Z,79.77
2019-05-29T23:51:42.650Z,79.69
2019-05-29T23:54:56.166Z,80.08
2019-05-29T23:58:09.740Z,80.56
